Time;durP1;ratioP1;P1;durP2;ratioP2;P2;SDS_P1;SDS_P2;PMS_P1;PMS_P2;Temp;Humidity;BMP_temperature;BMP_pressure;BME280_temperature;BME280_humidity;BME280_pressure;Samples;Min_cycle;Max_cycle;Signal;HPM_P1;HPM_P2
2023/07/28 00:00:31;;;;;;;3.78;2.47;;;;;;;;;;5020650;28;20105;-76
2023/07/28 00:03:03;;;;;;;3.05;2.67;;;;;;;;;;5018579;28;20088;-77
2023/07/28 00:05:31;;;;;;;3.10;2.58;;;;;;;;;;5017615;28;20026;-76
2023/07/28 00:07:57;;;;;;;4.35;2.28;;;;;;;;;;5013263;28;20069;-77
2023/07/28 00:10:27;;;;;;;5.13;2.42;;;;;;;;;;5014888;28;20030;-77
2023/07/28 00:13:01;;;;;;;4.95;3.08;;;;;;;;;;5015800;28;20036;-76
2023/07/28 00:15:29;;;;;;;4.38;3.08;;;;;;;;;;5015441;28;20064;-77
2023/07/28 00:17:56;;;;;;;3.42;3.10;;;;;;;;;;5016006;28;20026;-76
2023/07/28 00:20:27;;;;;;;2.90;2.53;;;;;;;;;;5017034;28;20041;-76
2023/07/28 00:22:57;;;;;;;5.03;3.00;;;;;;;;;;5016777;28;20052;-76
2023/07/28 00:25:24;;;;;;;5.63;2.85;;;;;;;;;;5017382;28;20056;-77
2023/07/28 00:27:50;;;;;;;3.40;2.80;;;;;;;;;;5014463;28;20133;-76
2023/07/28 00:30:23;;;;;;;3.85;2.55;;;;;;;;;;5015973;28;20029;-76
2023/07/28 00:32:57;;;;;;;4.40;2.97;;;;;;;;;;5001164;28;20084;-77
2023/07/28 00:35:23;;;;;;;4.00;2.70;;;;;;;;;;5016916;28;20053;-76
2023/07/28 00:37:52;;;;;;;2.88;2.38;;;;;;;;;;5018658;28;20410;-76
2023/07/28 00:40:27;;;;;;;4.28;3.00;;;;;;;;;;5018415;28;20025;-76
2023/07/28 00:42:59;;;;;;;5.95;2.92;;;;;;;;;;5017957;28;20088;-76
2023/07/28 00:45:25;;;;;;;5.75;3.25;;;;;;;;;;5016033;28;20488;-76
2023/07/28 00:48:03;;;;;;;4.40;2.97;;;;;;;;;;5016635;28;20101;-77
2023/07/28 00:50:35;;;;;;;3.88;2.95;;;;;;;;;;5015533;28;20030;-76
2023/07/28 00:53:01;;;;;;;5.28;2.47;;;;;;;;;;5014120;28;20026;-78
2023/07/28 00:55:32;;;;;;;3.80;2.95;;;;;;;;;;5015161;28;20029;-77
2023/07/28 00:57:58;;;;;;;5.38;2.80;;;;;;;;;;5013474;28;20018;-76
2023/07/28 01:00:25;;;;;;;6.43;2.90;;;;;;;;;;5012756;28;20064;-77
2023/07/28 01:02:51;;;;;;;5.38;2.38;;;;;;;;;;5013557;28;20025;-77
2023/07/28 01:05:24;;;;;;;5.47;2.63;;;;;;;;;;5030387;28;20083;-77
2023/07/28 01:08:37;;;;;;;4.97;2.67;;;;;;;;;;5015192;28;20053;-77
2023/07/28 01:11:06;;;;;;;7.03;2.63;;;;;;;;;;4987955;28;20072;-76
2023/07/28 01:13:38;;;;;;;6.28;3.15;;;;;;;;;;5014879;28;20030;-76
2023/07/28 01:16:08;;;;;;;2.40;2.00;;;;;;;;;;5012917;28;20121;-76
2023/07/28 01:18:39;;;;;;;2.80;2.42;;;;;;;;;;5013201;28;20025;-76
2023/07/28 01:21:12;;;;;;;3.95;2.95;;;;;;;;;;5013381;28;20092;-76
2023/07/28 01:23:57;;;;;;;3.00;2.70;;;;;;;;;;4997280;28;20092;-78
2023/07/28 01:26:39;;;;;;;3.72;2.95;;;;;;;;;;5012876;28;20050;-77
2023/07/28 01:29:15;;;;;;;4.90;3.25;;;;;;;;;;5013078;28;20037;-75
2023/07/28 01:31:42;;;;;;;2.75;2.42;;;;;;;;;;5013835;28;20034;-76
2023/07/28 01:34:11;;;;;;;3.95;2.80;;;;;;;;;;5013338;28;20021;-77
2023/07/28 01:36:40;;;;;;;6.18;3.20;;;;;;;;;;5030133;28;20485;-77
2023/07/28 01:39:06;;;;;;;4.32;3.10;;;;;;;;;;5012518;28;20498;-75
2023/07/28 01:41:43;;;;;;;3.88;3.08;;;;;;;;;;5013391;28;20029;-79
2023/07/28 01:44:10;;;;;;;4.13;3.13;;;;;;;;;;5013152;28;20030;-77
2023/07/28 01:46:37;;;;;;;3.78;3.00;;;;;;;;;;4996844;28;20036;-75
2023/07/28 01:49:05;;;;;;;7.85;3.17;;;;;;;;;;5013522;28;20030;-77
2023/07/28 01:51:34;;;;;;;3.08;2.60;;;;;;;;;;5015000;28;20024;-77
2023/07/28 01:54:06;;;;;;;2.95;2.65;;;;;;;;;;5013188;28;20550;-76
2023/07/28 01:56:35;;;;;;;9.70;2.90;;;;;;;;;;5013600;28;20117;-77
2023/07/28 01:59:23;;;;;;;2.83;2.40;;;;;;;;;;5013782;28;20076;-77
2023/07/28 02:01:50;;;;;;;9.10;2.92;;;;;;;;;;4989923;28;20042;-77
2023/07/28 02:04:37;;;;;;;6.57;2.80;;;;;;;;;;5013110;28;20072;-76
2023/07/28 02:07:13;;;;;;;7.00;2.85;;;;;;;;;;5013620;28;20042;-77
2023/07/28 02:09:46;;;;;;;3.72;2.65;;;;;;;;;;5015104;28;20069;-77
2023/07/28 02:12:19;;;;;;;4.57;3.10;;;;;;;;;;5013915;28;20040;-76
2023/07/28 02:14:48;;;;;;;2.83;2.55;;;;;;;;;;5014525;28;20030;-75
2023/07/28 02:17:14;;;;;;;4.70;3.17;;;;;;;;;;5016768;28;20034;-76
2023/07/28 02:19:40;;;;;;;4.82;3.45;;;;;;;;;;5015855;28;20030;-76
2023/07/28 02:22:11;;;;;;;5.38;2.90;;;;;;;;;;5018897;28;20091;-77
2023/07/28 02:24:39;;;;;;;6.28;2.70;;;;;;;;;;5017376;28;20021;-78
2023/07/28 02:27:08;;;;;;;7.57;3.20;;;;;;;;;;5021683;28;20054;-77
2023/07/28 02:29:40;;;;;;;5.55;2.72;;;;;;;;;;5023654;28;20026;-77
2023/07/28 02:32:05;;;;;;;;;;;;;;;;;;5027059;28;20093;-77
2023/07/28 02:34:34;;;;;;;4.18;3.10;;;;;;;;;;5041673;28;20280;-78
2023/07/28 02:37:22;;;;;;;5.20;3.35;;;;;;;;;;5015784;28;20030;-76
2023/07/28 02:39:55;;;;;;;5.07;3.03;;;;;;;;;;4997459;28;20052;-77
2023/07/28 02:42:39;;;;;;;5.03;3.30;;;;;;;;;;5014157;28;20429;-79
2023/07/28 02:45:09;;;;;;;4.38;3.42;;;;;;;;;;4995871;28;20076;-77
2023/07/28 02:47:39;;;;;;;5.85;3.85;;;;;;;;;;5012904;28;20026;-77
2023/07/28 02:50:09;;;;;;;5.43;3.10;;;;;;;;;;5014509;28;20032;-75
2023/07/28 02:52:35;;;;;;;3.88;2.85;;;;;;;;;;5014180;28;20034;-78
2023/07/28 02:55:04;;;;;;;6.57;3.58;;;;;;;;;;5012602;28;20040;-77
2023/07/28 02:57:35;;;;;;;4.35;3.22;;;;;;;;;;5012520;28;20022;-77
2023/07/28 03:00:10;;;;;;;4.10;3.22;;;;;;;;;;5012995;28;20539;-77
2023/07/28 03:02:48;;;;;;;6.60;3.20;;;;;;;;;;5013792;28;20394;-78
2023/07/28 03:05:14;;;;;;;4.55;3.45;;;;;;;;;;5014460;28;20088;-77
2023/07/28 03:07:43;;;;;;;5.97;3.28;;;;;;;;;;5012810;28;20037;-77
2023/07/28 03:10:18;;;;;;;6.15;3.13;;;;;;;;;;5029105;28;20038;-77
2023/07/28 03:12:48;;;;;;;5.55;3.05;;;;;;;;;;5012604;28;20113;-77
2023/07/28 03:15:24;;;;;;;5.40;3.10;;;;;;;;;;5012418;28;20074;-78
2023/07/28 03:17:57;;;;;;;5.53;3.67;;;;;;;;;;5013270;28;20022;-77
2023/07/28 03:20:27;;;;;;;4.55;2.80;;;;;;;;;;5012327;28;20037;-76
2023/07/28 03:22:57;;;;;;;7.38;3.60;;;;;;;;;;5013977;28;20034;-75
2023/07/28 03:25:28;;;;;;;7.18;3.33;;;;;;;;;;5012045;28;20116;-78
2023/07/28 03:27:55;;;;;;;3.63;3.00;;;;;;;;;;5011896;28;20112;-78
2023/07/28 03:30:41;;;;;;;7.80;3.55;;;;;;;;;;5012529;28;20034;-76
2023/07/28 03:33:13;;;;;;;5.43;3.28;;;;;;;;;;5012417;28;20521;-77
2023/07/28 03:35:48;;;;;;;5.38;3.08;;;;;;;;;;5013130;28;20041;-77
2023/07/28 03:38:15;;;;;;;3.40;3.10;;;;;;;;;;5011610;28;20594;-77
2023/07/28 03:40:47;;;;;;;3.83;3.10;;;;;;;;;;5013739;28;20021;-77
2023/07/28 03:43:13;;;;;;;5.63;3.00;;;;;;;;;;5014552;28;20034;-77
2023/07/28 03:45:51;;;;;;;5.30;3.15;;;;;;;;;;5016962;28;20026;-78
2023/07/28 03:48:17;;;;;;;3.80;2.92;;;;;;;;;;5016496;28;20025;-77
2023/07/28 03:50:44;;;;;;;4.25;3.22;;;;;;;;;;5016546;28;20030;-77
2023/07/28 03:53:13;;;;;;;7.03;3.40;;;;;;;;;;5015420;28;20033;-77
2023/07/28 03:55:40;;;;;;;4.35;2.95;;;;;;;;;;5015367;28;20022;-77
2023/07/28 03:58:09;;;;;;;5.97;3.70;;;;;;;;;;5016421;28;20029;-76
2023/07/28 04:00:37;;;;;;;4.10;3.08;;;;;;;;;;5015735;28;20021;-78
2023/07/28 04:03:08;;;;;;;4.60;3.05;;;;;;;;;;5016080;28;20041;-77
2023/07/28 04:05:39;;;;;;;4.10;3.20;;;;;;;;;;5016454;28;20029;-76
2023/07/28 04:08:14;;;;;;;9.15;3.65;;;;;;;;;;5000884;28;20030;-78
2023/07/28 04:10:44;;;;;;;6.68;3.50;;;;;;;;;;5014890;28;20034;-77
2023/07/28 04:13:14;;;;;;;7.78;4.28;;;;;;;;;;5017908;28;20455;-78
2023/07/28 04:15:54;;;;;;;4.40;3.70;;;;;;;;;;5017490;28;20397;-78
2023/07/28 04:18:32;;;;;;;6.88;3.38;;;;;;;;;;5015139;28;20141;-77
2023/07/28 04:20:58;;;;;;;4.60;3.10;;;;;;;;;;5017299;28;20513;-77
2023/07/28 04:23:24;;;;;;;5.07;3.55;;;;;;;;;;5016544;28;20026;-78
2023/07/28 04:26:07;;;;;;;3.90;2.92;;;;;;;;;;5016847;28;20068;-76
2023/07/28 04:28:40;;;;;;;4.00;2.88;;;;;;;;;;5015258;28;20049;-76
2023/07/28 04:31:12;;;;;;;5.28;3.30;;;;;;;;;;5015710;28;20041;-77
2023/07/28 04:33:46;;;;;;;;;;;;;;;;;;5015962;28;20037;-78
2023/07/28 04:36:31;;;;;;;4.38;2.70;;;;;;;;;;5016378;28;19914;-75
2023/07/28 04:38:58;;;;;;;6.25;2.80;;;;;;;;;;5023620;28;20027;-76
2023/07/28 04:41:29;;;;;;;5.47;3.35;;;;;;;;;;5021447;28;20033;-77
2023/07/28 04:44:00;;;;;;;;;;;;;;;;;;5015826;28;20021;-77
2023/07/28 04:46:49;;;;;;;;;;;;;;;;;;;;;
2023/07/28 04:49:21;;;;;;;4.45;2.65;;;;;;;;;;5016761;28;20128;-77
2023/07/28 04:51:50;;;;;;;6.10;2.92;;;;;;;;;;5015299;28;20022;-77
2023/07/28 04:54:16;;;;;;;3.60;2.40;;;;;;;;;;5015746;28;20049;-77
2023/07/28 04:57:00;;;;;;;4.28;2.38;;;;;;;;;;5015333;28;20128;-77
2023/07/28 04:59:37;;;;;;;5.93;2.70;;;;;;;;;;5015082;28;20026;-77
2023/07/28 05:02:06;;;;;;;4.53;3.03;;;;;;;;;;5015680;28;20053;-78
2023/07/28 05:04:33;;;;;;;4.93;2.60;;;;;;;;;;5014861;28;20112;-78
2023/07/28 05:07:00;;;;;;;5.68;2.28;;;;;;;;;;5015032;28;20117;-78
2023/07/28 05:09:31;;;;;;;3.65;2.78;;;;;;;;;;5014657;28;20050;-78
2023/07/28 05:11:59;;;;;;;3.00;2.13;;;;;;;;;;5014843;28;20374;-76
2023/07/28 05:14:38;;;;;;;5.00;2.10;;;;;;;;;;5015242;28;20060;-78
2023/07/28 05:17:05;;;;;;;3.00;2.40;;;;;;;;;;5017238;28;20037;-76
2023/07/28 05:19:35;;;;;;;3.50;2.30;;;;;;;;;;5018734;28;20037;-76
2023/07/28 05:22:10;;;;;;;4.32;2.58;;;;;;;;;;5016227;28;20083;-78
2023/07/28 05:24:43;;;;;;;3.08;2.10;;;;;;;;;;5030341;28;20048;-77
2023/07/28 05:27:09;;;;;;;4.40;2.53;;;;;;;;;;5030513;28;20132;-75
2023/07/28 05:29:36;;;;;;;4.15;2.38;;;;;;;;;;5033361;28;20470;-77
2023/07/28 05:32:05;;;;;;;3.00;2.10;;;;;;;;;;5029047;28;20454;-76
2023/07/28 05:34:35;;;;;;;2.70;2.50;;;;;;;;;;5029429;28;20037;-76
2023/07/28 05:37:04;;;;;;;5.78;2.47;;;;;;;;;;5034991;28;20029;-76
2023/07/28 05:39:30;;;;;;;4.55;2.60;;;;;;;;;;5032553;28;20037;-74
2023/07/28 05:41:56;;;;;;;3.30;2.45;;;;;;;;;;5018666;28;20113;-74
2023/07/28 05:44:23;;;;;;;3.60;2.03;;;;;;;;;;5025349;28;20029;-77
2023/07/28 05:46:52;;;;;;;3.42;2.20;;;;;;;;;;5046230;28;20029;-76
2023/07/28 05:49:18;;;;;;;4.70;2.20;;;;;;;;;;5028162;28;20037;-75
2023/07/28 05:51:44;;;;;;;3.67;2.03;;;;;;;;;;5027383;28;20049;-75
2023/07/28 05:54:14;;;;;;;2.92;2.03;;;;;;;;;;5047861;28;20028;-75
2023/07/28 05:56:55;;;;;;;3.10;1.90;;;;;;;;;;5034088;28;20035;-75
2023/07/28 05:59:22;;;;;;;3.90;2.50;;;;;;;;;;5019707;28;20040;-75
2023/07/28 06:01:48;;;;;;;7.15;2.10;;;;;;;;;;5033961;28;20382;-75
2023/07/28 06:04:13;;;;;;;3.40;1.90;;;;;;;;;;5029303;28;20672;-74
2023/07/28 06:06:39;;;;;;;2.25;1.55;;;;;;;;;;5015938;28;20044;-74
2023/07/28 06:09:04;;;;;;;2.17;1.70;;;;;;;;;;5019116;28;20053;-74
2023/07/28 06:11:30;;;;;;;2.92;1.40;;;;;;;;;;5027307;28;20037;-73
2023/07/28 06:13:55;;;;;;;3.03;2.00;;;;;;;;;;5028986;28;20079;-74
2023/07/28 06:16:21;;;;;;;4.45;1.92;;;;;;;;;;5027497;28;20042;-75
2023/07/28 06:18:46;;;;;;;4.40;2.65;;;;;;;;;;5025947;28;20041;-73
2023/07/28 06:21:12;;;;;;;6.22;1.98;;;;;;;;;;5028049;28;20067;-75
2023/07/28 06:23:37;;;;;;;4.32;1.63;;;;;;;;;;5029044;28;20148;-76
2023/07/28 06:26:03;;;;;;;3.00;1.40;;;;;;;;;;5012609;28;20054;-75
2023/07/28 06:28:33;;;;;;;2.60;1.40;;;;;;;;;;5023751;28;20564;-75
2023/07/28 06:30:58;;;;;;;3.97;2.20;;;;;;;;;;5009193;28;20033;-74
2023/07/28 06:33:25;;;;;;;2.60;1.77;;;;;;;;;;5024597;28;20029;-74
2023/07/28 06:35:51;;;;;;;3.25;2.22;;;;;;;;;;5025022;28;20057;-74
2023/07/28 06:38:17;;;;;;;5.10;1.65;;;;;;;;;;5019513;28;20032;-76
2023/07/28 06:40:43;;;;;;;2.75;1.77;;;;;;;;;;5023855;28;20033;-75
2023/07/28 06:43:10;;;;;;;2.92;1.50;;;;;;;;;;5027260;28;20025;-76
2023/07/28 06:45:36;;;;;;;3.65;1.92;;;;;;;;;;5028391;28;20033;-74
2023/07/28 06:48:03;;;;;;;6.20;1.30;;;;;;;;;;5030198;28;20029;-75
2023/07/28 06:50:29;;;;;;;1.42;1.10;;;;;;;;;;5034734;28;20021;-75
2023/07/28 06:52:55;;;;;;;2.47;1.33;;;;;;;;;;5033570;28;20029;-74
2023/07/28 06:55:21;;;;;;;1.67;1.38;;;;;;;;;;5010988;28;20090;-74
2023/07/28 06:57:47;;;;;;;3.15;1.20;;;;;;;;;;5014790;28;20026;-74
2023/07/28 07:00:14;;;;;;;2.17;0.93;;;;;;;;;;5024533;28;20029;-76
2023/07/28 07:02:40;;;;;;;3.85;1.58;;;;;;;;;;5025870;28;20083;-74
2023/07/28 07:05:06;;;;;;;2.58;1.30;;;;;;;;;;5018440;28;20113;-74
2023/07/28 07:07:32;;;;;;;1.15;1.05;;;;;;;;;;5015940;28;20277;-72
2023/07/28 07:09:58;;;;;;;1.45;0.98;;;;;;;;;;5026379;28;20029;-75
2023/07/28 07:12:24;;;;;;;1.10;0.93;;;;;;;;;;5024757;28;20026;-74
2023/07/28 07:14:50;;;;;;;0.88;0.70;;;;;;;;;;5015897;28;20516;-74
2023/07/28 07:17:15;;;;;;;1.45;0.88;;;;;;;;;;5027247;28;20021;-73
2023/07/28 07:19:41;;;;;;;2.45;1.15;;;;;;;;;;5019887;28;20523;-75
2023/07/28 07:22:06;;;;;;;1.30;0.60;;;;;;;;;;5019531;28;20037;-76
2023/07/28 07:24:32;;;;;;;1.30;0.85;;;;;;;;;;5027889;28;20033;-76
2023/07/28 07:26:59;;;;;;;1.88;1.17;;;;;;;;;;5030451;28;20052;-74
2023/07/28 07:29:24;;;;;;;1.95;0.75;;;;;;;;;;5023477;28;20140;-76
2023/07/28 07:31:54;;;;;;;2.20;0.73;;;;;;;;;;5023862;28;20124;-75
2023/07/28 07:34:20;;;;;;;3.70;0.98;;;;;;;;;;5031516;28;20034;-74
2023/07/28 07:36:46;;;;;;;1.58;0.60;;;;;;;;;;5030635;28;20029;-75
2023/07/28 07:39:13;;;;;;;1.90;0.80;;;;;;;;;;5017187;28;20470;-75
2023/07/28 07:41:40;;;;;;;5.45;0.70;;;;;;;;;;5030018;28;20076;-75
2023/07/28 07:44:07;;;;;;;1.15;0.85;;;;;;;;;;5015767;28;20026;-74
2023/07/28 07:46:33;;;;;;;4.53;1.00;;;;;;;;;;5022502;28;20791;-76
2023/07/28 07:48:58;;;;;;;1.42;0.77;;;;;;;;;;5023078;28;20040;-75
2023/07/28 07:51:24;;;;;;;1.38;0.70;;;;;;;;;;5043199;28;20037;-76
2023/07/28 07:53:49;;;;;;;1.23;0.65;;;;;;;;;;5000731;28;20030;-77
2023/07/28 07:56:15;;;;;;;1.15;1.00;;;;;;;;;;5029144;28;20026;-75
2023/07/28 07:58:41;;;;;;;1.83;0.77;;;;;;;;;;5028244;28;20076;-75
2023/07/28 08:01:07;;;;;;;0.60;0.60;;;;;;;;;;5020356;28;20053;-77
2023/07/28 08:03:33;;;;;;;1.05;0.57;;;;;;;;;;5029768;28;20393;-77
2023/07/28 08:05:59;;;;;;;1.05;0.70;;;;;;;;;;5028199;28;20021;-76
2023/07/28 08:08:24;;;;;;;1.63;1.13;;;;;;;;;;5029840;28;20075;-75
2023/07/28 08:10:50;;;;;;;0.63;0.63;;;;;;;;;;5019881;28;20454;-75
2023/07/28 08:13:16;;;;;;;2.15;0.60;;;;;;;;;;5028459;28;20029;-76
2023/07/28 08:15:46;;;;;;;1.90;0.73;;;;;;;;;;5026109;28;20117;-74
2023/07/28 08:18:12;;;;;;;0.60;0.60;;;;;;;;;;5027648;28;20454;-74
2023/07/28 08:20:38;;;;;;;0.68;0.68;;;;;;;;;;5025116;28;20033;-75
2023/07/28 08:23:03;;;;;;;2.53;0.70;;;;;;;;;;5018488;28;20472;-76
2023/07/28 08:25:29;;;;;;;1.75;0.52;;;;;;;;;;5027863;28;20116;-74
2023/07/28 08:27:55;;;;;;;0.57;0.57;;;;;;;;;;5027473;28;20109;-75
2023/07/28 08:30:20;;;;;;;0.80;0.60;;;;;;;;;;5003790;28;20072;-75
2023/07/28 08:32:46;;;;;;;0.75;0.70;;;;;;;;;;5020353;28;20366;-74
2023/07/28 08:35:12;;;;;;;0.60;0.60;;;;;;;;;;5025268;28;20029;-78
2023/07/28 08:37:39;;;;;;;0.73;0.57;;;;;;;;;;5027740;28;20493;-75
2023/07/28 08:40:05;;;;;;;4.60;2.25;;;;;;;;;;5025846;28;20502;-76
2023/07/28 08:42:36;;;;;;;1.58;1.10;;;;;;;;;;5011761;28;20021;-76
2023/07/28 08:45:04;;;;;;;2.25;0.70;;;;;;;;;;5018800;28;20489;-75
2023/07/28 08:47:32;;;;;;;2.72;0.55;;;;;;;;;;5017187;28;20040;-75
2023/07/28 08:49:58;;;;;;;0.75;0.75;;;;;;;;;;5026423;28;20040;-75
2023/07/28 08:52:24;;;;;;;0.60;0.60;;;;;;;;;;5042184;28;20033;-75
2023/07/28 08:54:51;;;;;;;1.17;0.93;;;;;;;;;;5023870;28;20028;-76
2023/07/28 08:57:16;;;;;;;0.98;0.85;;;;;;;;;;5018811;28;20032;-75
2023/07/28 08:59:47;;;;;;;3.42;0.95;;;;;;;;;;5025377;28;20033;-75
2023/07/28 09:02:15;;;;;;;2.53;0.70;;;;;;;;;;5024138;28;20068;-74
2023/07/28 09:04:44;;;;;;;0.77;0.70;;;;;;;;;;5024048;28;20026;-76
2023/07/28 09:07:10;;;;;;;0.60;0.60;;;;;;;;;;5027164;28;20030;-75
2023/07/28 09:09:36;;;;;;;0.73;0.73;;;;;;;;;;5025390;28;20056;-77
2023/07/28 09:12:03;;;;;;;1.95;0.70;;;;;;;;;;5012725;28;20058;-76
2023/07/28 09:14:30;;;;;;;2.97;0.93;;;;;;;;;;5024337;28;20029;-75
2023/07/28 09:17:05;;;;;;;5.38;1.00;;;;;;;;;;5023425;28;20057;-76
2023/07/28 09:19:30;;;;;;;1.13;0.80;;;;;;;;;;5022139;28;20033;-75
2023/07/28 09:22:01;;;;;;;1.55;0.80;;;;;;;;;;5028238;28;20112;-75
2023/07/28 09:24:33;;;;;;;0.95;0.70;;;;;;;;;;5027721;28;20040;-74
2023/07/28 09:27:00;;;;;;;1.02;0.90;;;;;;;;;;5021616;28;20065;-75
2023/07/28 09:29:29;;;;;;;4.50;0.90;;;;;;;;;;5021543;28;20337;-75
2023/07/28 09:32:06;;;;;;;1.45;0.95;;;;;;;;;;5029402;28;20134;-77
2023/07/28 09:34:32;;;;;;;3.25;1.00;;;;;;;;;;5027392;28;20113;-76
2023/07/28 09:37:00;;;;;;;3.65;0.90;;;;;;;;;;5014053;28;20022;-75
2023/07/28 09:39:26;;;;;;;1.65;0.80;;;;;;;;;;5025835;28;20110;-75
2023/07/28 09:41:56;;;;;;;3.15;1.00;;;;;;;;;;5029172;28;20073;-74
2023/07/28 09:44:22;;;;;;;5.28;1.05;;;;;;;;;;5025276;28;20025;-74
2023/07/28 09:46:51;;;;;;;1.48;1.35;;;;;;;;;;5031226;28;20025;-77
2023/07/28 09:49:28;;;;;;;1.85;1.15;;;;;;;;;;5021456;28;20028;-74
2023/07/28 09:51:54;;;;;;;4.10;1.20;;;;;;;;;;5040041;28;20026;-74
2023/07/28 09:54:29;;;;;;;1.60;1.50;;;;;;;;;;5026438;28;20036;-76
2023/07/28 09:56:59;;;;;;;2.78;1.20;;;;;;;;;;5029006;28;20052;-75
2023/07/28 09:59:35;;;;;;;1.13;1.10;;;;;;;;;;5021813;28;20026;-75
2023/07/28 10:02:02;;;;;;;4.93;1.13;;;;;;;;;;5024487;28;20243;-76
2023/07/28 10:04:29;;;;;;;2.60;1.15;;;;;;;;;;5042098;28;20370;-76
2023/07/28 10:06:56;;;;;;;1.08;0.90;;;;;;;;;;5026181;28;20508;-76
2023/07/28 10:09:33;;;;;;;1.17;1.08;;;;;;;;;;5025231;28;20425;-76
2023/07/28 10:11:59;;;;;;;2.63;1.20;;;;;;;;;;5024182;28;20033;-76
2023/07/28 10:14:39;;;;;;;3.47;1.10;;;;;;;;;;5027546;28;20501;-75
2023/07/28 10:17:06;;;;;;;1.95;1.10;;;;;;;;;;5007704;28;20471;-74
2023/07/28 10:19:35;;;;;;;1.15;1.05;;;;;;;;;;4999834;28;20144;-75
2023/07/28 10:22:09;;;;;;;2.22;1.20;;;;;;;;;;5022351;28;20389;-77
2023/07/28 10:25:00;;;;;;;0.90;0.90;;;;;;;;;;5020193;28;20036;-75
2023/07/28 10:27:36;;;;;;;1.60;0.97;;;;;;;;;;5026807;28;20121;-74
2023/07/28 10:30:09;;;;;;;2.45;1.13;;;;;;;;;;5027210;28;20564;-75
2023/07/28 10:32:43;;;;;;;1.17;0.95;;;;;;;;;;4994872;28;20037;-75
2023/07/28 10:35:08;;;;;;;0.77;0.77;;;;;;;;;;5017690;28;20501;-77
2023/07/28 10:38:31;;;;;;;1.40;1.30;;;;;;;;;;5020435;28;20029;-74
2023/07/28 10:40:36;;;;;;;0.88;0.88;;;;;;;;;;5009016;28;20056;-74
2023/07/28 10:43:04;;;;;;;0.98;0.77;;;;;;;;;;5028626;28;20025;-75
2023/07/28 10:45:32;;;;;;;2.55;1.00;;;;;;;;;;5025642;28;20029;-76
2023/07/28 10:48:03;;;;;;;0.93;0.90;;;;;;;;;;5027475;28;20032;-76
2023/07/28 10:50:32;;;;;;;0.90;0.80;;;;;;;;;;5015652;28;20048;-77
2023/07/28 10:52:58;;;;;;;1.00;0.82;;;;;;;;;;5026193;28;20026;-76
2023/07/28 10:55:25;;;;;;;0.98;0.70;;;;;;;;;;5027654;28;20488;-76
2023/07/28 10:57:53;;;;;;;6.63;0.82;;;;;;;;;;5013302;28;20104;-76
2023/07/28 11:00:22;;;;;;;1.10;0.60;;;;;;;;;;5020601;28;20477;-75
2023/07/28 11:02:50;;;;;;;1.27;0.50;;;;;;;;;;5034028;28;20033;-76
2023/07/28 11:05:34;;;;;;;0.70;0.70;;;;;;;;;;5038678;28;20131;-76
2023/07/28 11:08:01;;;;;;;0.63;0.60;;;;;;;;;;5027246;28;20036;-75
2023/07/28 11:10:31;;;;;;;1.75;0.73;;;;;;;;;;5028483;28;20371;-77
2023/07/28 11:13:01;;;;;;;1.88;0.88;;;;;;;;;;5022724;28;20029;-77
2023/07/28 11:15:27;;;;;;;1.55;0.93;;;;;;;;;;5025109;28;20021;-76
2023/07/28 11:17:55;;;;;;;0.82;0.82;;;;;;;;;;5030627;28;20034;-76
2023/07/28 11:20:25;;;;;;;1.00;0.90;;;;;;;;;;5025537;28;20030;-76
2023/07/28 11:22:54;;;;;;;1.93;0.83;;;;;;;;;;5027823;28;20091;-75
2023/07/28 11:25:21;;;;;;;1.73;0.63;;;;;;;;;;5022528;28;20039;-75
2023/07/28 11:27:47;;;;;;;0.50;0.50;;;;;;;;;;5030926;28;20076;-75
2023/07/28 11:30:15;;;;;;;2.53;0.90;;;;;;;;;;5032018;28;20112;-75
2023/07/28 11:32:43;;;;;;;0.80;0.80;;;;;;;;;;5029884;28;20052;-75
2023/07/28 11:35:11;;;;;;;1.60;0.90;;;;;;;;;;5026769;28;20026;-75
2023/07/28 11:37:38;;;;;;;1.02;0.77;;;;;;;;;;5029077;28;20048;-75
2023/07/28 11:40:06;;;;;;;1.65;1.10;;;;;;;;;;5021002;28;20127;-76
2023/07/28 11:42:35;;;;;;;0.82;0.70;;;;;;;;;;5025920;28;20033;-76
2023/07/28 11:45:03;;;;;;;0.95;0.70;;;;;;;;;;5018490;28;20112;-76
2023/07/28 11:47:28;;;;;;;0.93;0.75;;;;;;;;;;5029113;28;20486;-76
2023/07/28 11:49:54;;;;;;;3.25;0.93;;;;;;;;;;5018961;28;20064;-74
2023/07/28 11:52:21;;;;;;;1.35;0.88;;;;;;;;;;5025295;28;20378;-75
2023/07/28 11:54:46;;;;;;;1.67;0.60;;;;;;;;;;5020530;28;20037;-75
2023/07/28 11:57:12;;;;;;;1.05;0.55;;;;;;;;;;5031376;28;20036;-75
2023/07/28 11:59:38;;;;;;;0.73;0.70;;;;;;;;;;5032254;28;20037;-75
2023/07/28 12:02:05;;;;;;;1.08;0.70;;;;;;;;;;5015673;28;20427;-75
2023/07/28 12:04:38;;;;;;;1.20;1.10;;;;;;;;;;5027728;28;20017;-74
2023/07/28 12:07:06;;;;;;;2.88;0.70;;;;;;;;;;5019182;28;20060;-74
2023/07/28 12:09:33;;;;;;;0.60;0.60;;;;;;;;;;5023306;28;20059;-75
2023/07/28 12:12:01;;;;;;;0.40;0.40;;;;;;;;;;5026875;28;20474;-75
2023/07/28 12:14:34;;;;;;;0.55;0.52;;;;;;;;;;5027513;28;20113;-74
2023/07/28 12:17:02;;;;;;;0.65;0.50;;;;;;;;;;5020540;28;20033;-76
2023/07/28 12:19:28;;;;;;;1.90;0.50;;;;;;;;;;5023853;28;20040;-76
2023/07/28 12:21:54;;;;;;;1.70;0.60;;;;;;;;;;5025494;28;20087;-76
2023/07/28 12:24:19;;;;;;;0.50;0.50;;;;;;;;;;5025981;28;20033;-76
2023/07/28 12:26:47;;;;;;;1.13;0.52;;;;;;;;;;5015244;28;20362;-75
2023/07/28 12:29:13;;;;;;;0.35;0.32;;;;;;;;;;5026381;28;20037;-74
2023/07/28 12:31:39;;;;;;;0.50;0.45;;;;;;;;;;5016816;28;20030;-75
2023/07/28 12:34:04;;;;;;;0.50;0.30;;;;;;;;;;5028799;28;20025;-76
2023/07/28 12:36:30;;;;;;;0.73;0.60;;;;;;;;;;5027834;28;20099;-77
2023/07/28 12:38:55;;;;;;;2.85;0.73;;;;;;;;;;5026686;28;20049;-74
2023/07/28 12:41:21;;;;;;;0.93;0.60;;;;;;;;;;5024995;28;20025;-74
2023/07/28 12:43:46;;;;;;;0.68;0.55;;;;;;;;;;5027815;28;20076;-76
2023/07/28 12:46:12;;;;;;;0.70;0.70;;;;;;;;;;5021092;28;20417;-75
2023/07/28 12:48:37;;;;;;;0.45;0.40;;;;;;;;;;5024463;28;20354;-74
2023/07/28 12:51:03;;;;;;;0.60;0.40;;;;;;;;;;5022865;28;20033;-75
2023/07/28 12:53:28;;;;;;;1.20;0.38;;;;;;;;;;5023647;28;20037;-76
2023/07/28 12:55:55;;;;;;;1.48;0.50;;;;;;;;;;5019990;28;20036;-73
2023/07/28 12:58:20;;;;;;;0.30;0.30;;;;;;;;;;5024475;28;20033;-75
2023/07/28 13:00:46;;;;;;;0.90;0.50;;;;;;;;;;5027032;28;20029;-75
2023/07/28 13:03:11;;;;;;;0.60;0.60;;;;;;;;;;5030593;28;20563;-74
2023/07/28 13:05:37;;;;;;;0.40;0.40;;;;;;;;;;5029027;28;20125;-77
2023/07/28 13:08:04;;;;;;;0.85;0.50;;;;;;;;;;5029783;28;20091;-75
2023/07/28 13:10:30;;;;;;;0.40;0.40;;;;;;;;;;5000566;28;20080;-76
2023/07/28 13:12:55;;;;;;;1.40;0.70;;;;;;;;;;5026831;28;20420;-76
2023/07/28 13:15:21;;;;;;;1.20;0.40;;;;;;;;;;5028319;28;20067;-76
2023/07/28 13:17:47;;;;;;;1.35;0.30;;;;;;;;;;5028000;28;20489;-77
2023/07/28 13:20:12;;;;;;;0.30;0.30;;;;;;;;;;5017448;28;20059;-76
2023/07/28 13:22:38;;;;;;;2.15;0.32;;;;;;;;;;5010559;28;20021;-77
2023/07/28 13:25:10;;;;;;;0.45;0.43;;;;;;;;;;5016458;28;20025;-78
2023/07/28 13:27:36;;;;;;;0.80;0.40;;;;;;;;;;5025826;28;20060;-76
2023/07/28 13:30:05;;;;;;;2.50;0.40;;;;;;;;;;5023124;28;20549;-76
2023/07/28 13:32:31;;;;;;;1.85;0.47;;;;;;;;;;5014099;28;20907;-77
2023/07/28 13:34:57;;;;;;;0.40;0.40;;;;;;;;;;5018680;28;20057;-76
2023/07/28 13:37:23;;;;;;;0.47;0.43;;;;;;;;;;5029148;28;20041;-77
2023/07/28 13:39:49;;;;;;;0.40;0.30;;;;;;;;;;5027704;28;20140;-76
2023/07/28 13:42:15;;;;;;;1.48;0.65;;;;;;;;;;5019509;28;20069;-77
2023/07/28 13:44:42;;;;;;;8.70;0.60;;;;;;;;;;5022467;28;20038;-77
2023/07/28 13:47:07;;;;;;;1.75;0.47;;;;;;;;;;5028833;28;20021;-76
2023/07/28 13:49:35;;;;;;;0.40;0.40;;;;;;;;;;5030389;28;20086;-77
2023/07/28 13:52:01;;;;;;;0.50;0.50;;;;;;;;;;5024179;28;20057;-76
2023/07/28 13:54:27;;;;;;;0.50;0.50;;;;;;;;;;5009529;28;20111;-76
2023/07/28 13:56:53;;;;;;;1.85;0.38;;;;;;;;;;5009273;28;20460;-76
2023/07/28 13:59:18;;;;;;;1.40;0.50;;;;;;;;;;5009097;28;20029;-76
2023/07/28 14:01:44;;;;;;;0.47;0.40;;;;;;;;;;5014232;28;20026;-76
2023/07/28 14:04:09;;;;;;;3.47;1.10;;;;;;;;;;5030080;28;20066;-76
2023/07/28 14:06:35;;;;;;;0.40;0.40;;;;;;;;;;5029930;28;20026;-82
2023/07/28 14:09:00;;;;;;;0.50;0.50;;;;;;;;;;5033930;28;20136;-83
2023/07/28 14:11:26;;;;;;;2.05;0.70;;;;;;;;;;5039408;28;20053;-80
2023/07/28 14:13:51;;;;;;;1.90;0.60;;;;;;;;;;5032474;28;20045;-75
2023/07/28 14:16:17;;;;;;;0.40;0.40;;;;;;;;;;5028745;28;20561;-78
2023/07/28 14:18:42;;;;;;;0.73;0.50;;;;;;;;;;5030605;28;20033;-76
2023/07/28 14:21:08;;;;;;;1.67;0.25;;;;;;;;;;5010926;28;20120;-78
2023/07/28 14:23:33;;;;;;;0.75;0.73;;;;;;;;;;5020850;28;20433;-77
2023/07/28 14:25:59;;;;;;;1.95;0.50;;;;;;;;;;5008276;28;20033;-76
2023/07/28 14:28:25;;;;;;;1.30;0.40;;;;;;;;;;5023647;28;20052;-77
2023/07/28 14:30:51;;;;;;;0.75;0.40;;;;;;;;;;5027473;28;20079;-76
2023/07/28 14:33:18;;;;;;;0.50;0.50;;;;;;;;;;5027061;28;20037;-77
2023/07/28 14:35:45;;;;;;;0.82;0.80;;;;;;;;;;5027745;28;20453;-76
2023/07/28 14:38:11;;;;;;;2.60;0.40;;;;;;;;;;5027394;28;20033;-76
2023/07/28 14:40:37;;;;;;;0.50;0.50;;;;;;;;;;5028843;28;20108;-76
2023/07/28 14:43:04;;;;;;;0.60;0.60;;;;;;;;;;5016102;28;20109;-77
2023/07/28 14:45:30;;;;;;;1.75;0.80;;;;;;;;;;5008418;28;20021;-76
2023/07/28 14:47:57;;;;;;;0.47;0.47;;;;;;;;;;5008241;28;20402;-77
2023/07/28 14:50:22;;;;;;;1.40;0.68;;;;;;;;;;5008194;28;20034;-77
2023/07/28 14:52:48;;;;;;;0.68;0.40;;;;;;;;;;5010452;28;20049;-76
2023/07/28 14:55:14;;;;;;;0.90;0.50;;;;;;;;;;5019384;28;20034;-77